createdAt,value
2022-08-07T00:01:43.331Z,98.10
2022-08-07T00:06:29.517Z,98.40
2022-08-07T00:16:50.285Z,97.90
2022-08-07T00:21:57.027Z,99.30
2022-08-07T00:27:07.167Z,98.70
2022-08-07T00:37:18.333Z,98.40
2022-08-07T00:42:29.092Z,98.60
2022-08-07T00:48:09.096Z,99.20
2022-08-07T00:57:56.412Z,99.30
2022-08-07T01:02:58.269Z,99.90
2022-08-07T01:08:00.237Z,99.30
2022-08-07T01:18:05.616Z,99.90
2022-08-07T01:23:13.102Z,99.80
2022-08-07T01:28:15.274Z,99.60
2022-08-07T01:33:17.371Z,99.90
2022-08-07T01:38:24.901Z,99.90
2022-08-07T01:54:12.706Z,99.90
2022-08-07T02:04:56.273Z,99.70
2022-08-07T02:10:14.473Z,99.90
2022-08-07T02:20:24.591Z,99.90
2022-08-07T02:26:10.751Z,99.90
2022-08-07T02:30:52.320Z,99.90
2022-08-07T02:46:46.543Z,99.90
2022-08-07T02:51:52.232Z,99.90
2022-08-07T02:56:56.306Z,99.90
2022-08-07T03:22:30.378Z,99.90
2022-08-07T03:32:58.660Z,99.90
2022-08-07T03:38:04.762Z,99.90
2022-08-07T03:43:10.109Z,99.90
2022-08-07T03:48:16.093Z,99.90
2022-08-07T03:53:17.828Z,99.90
2022-08-07T03:59:05.171Z,99.90
2022-08-07T04:03:53.223Z,99.90
2022-08-07T04:08:57.289Z,99.90
2022-08-07T04:14:33.243Z,99.90
2022-08-07T04:19:26.275Z,99.90
2022-08-07T04:24:49.688Z,99.90
2022-08-07T04:30:01.650Z,99.90
2022-08-07T04:35:07.198Z,99.90
2022-08-07T04:40:13.328Z,99.90
2022-08-07T04:45:20.971Z,99.90
2022-08-07T04:51:00.236Z,99.90
2022-08-07T04:58:11.261Z,99.90
2022-08-07T05:02:08.989Z,99.90
2022-08-07T05:07:36.977Z,99.90
2022-08-07T05:12:58.373Z,99.90
2022-08-07T05:18:20.088Z,99.90
2022-08-07T05:23:36.248Z,99.90
2022-08-07T05:28:40.605Z,99.90
2022-08-07T05:33:51.280Z,99.90
2022-08-07T05:39:08.943Z,99.90
2022-08-07T05:44:30.130Z,99.90
2022-08-07T05:49:40.855Z,99.90
2022-08-07T05:54:44.389Z,99.90
2022-08-07T06:00:01.256Z,99.90
2022-08-07T06:05:10.919Z,99.90
2022-08-07T06:10:17.624Z,99.90
2022-08-07T06:15:22.444Z,99.90
2022-08-07T06:20:50.859Z,99.90
2022-08-07T06:26:06.544Z,99.90
2022-08-07T06:31:08.879Z,99.90
2022-08-07T06:36:13.916Z,99.90
2022-08-07T06:42:03.033Z,99.90
2022-08-07T06:47:10.379Z,99.90
2022-08-07T06:52:17.229Z,99.90
2022-08-07T06:57:43.640Z,99.90
2022-08-07T07:02:57.320Z,99.90
2022-08-07T07:08:03.998Z,99.90
2022-08-07T07:13:56.008Z,99.90
2022-08-07T07:18:49.570Z,99.90
2022-08-07T07:24:09.835Z,99.90
2022-08-07T07:29:40.024Z,99.90
2022-08-07T07:34:42.163Z,99.90
2022-08-07T07:39:54.545Z,99.80
2022-08-07T07:44:59.589Z,99.10
2022-08-07T07:50:36.409Z,98.10
2022-08-07T07:55:27.771Z,97.90
2022-08-07T08:00:41.246Z,97.30
2022-08-07T08:05:54.553Z,96.00
2022-08-07T08:10:57.893Z,95.30
2022-08-07T08:16:02.646Z,95.20
2022-08-07T08:21:07.539Z,93.60
2022-08-07T08:26:32.688Z,92.70
2022-08-07T08:32:16.802Z,91.20
2022-08-07T08:36:59.960Z,90.50
2022-08-07T08:42:10.300Z,90.50
2022-08-07T08:47:20.017Z,88.60
2022-08-07T08:52:54.097Z,86.10
2022-08-07T08:58:28.346Z,86.00
2022-08-07T09:03:52.714Z,83.40
2022-08-07T09:09:09.694Z,83.50
2022-08-07T09:14:36.299Z,82.20
2022-08-07T09:20:34.715Z,82.30
2022-08-07T09:26:06.516Z,78.80
2022-08-07T09:32:17.134Z,80.00
2022-08-07T09:37:47.812Z,79.00
2022-08-07T09:43:11.903Z,80.50
2022-08-07T09:50:02.397Z,78.50
2022-08-07T09:54:16.834Z,76.30
2022-08-07T09:59:37.051Z,75.60
2022-08-07T10:05:12.370Z,76.20
2022-08-07T10:10:28.528Z,74.30
2022-08-07T10:15:46.561Z,74.40
2022-08-07T10:21:50.689Z,75.30
2022-08-07T10:27:15.669Z,71.60
2022-08-07T10:32:51.692Z,73.30
2022-08-07T10:38:09.869Z,74.40
2022-08-07T10:43:34.200Z,71.90
2022-08-07T10:48:46.589Z,71.40
2022-08-07T10:54:03.836Z,72.60
2022-08-07T10:59:37.304Z,73.10
2022-08-07T11:05:14.860Z,72.60
2022-08-07T11:10:40.959Z,71.80
2022-08-07T11:15:54.409Z,72.70
2022-08-07T11:21:07.710Z,68.60
2022-08-07T11:27:01.930Z,68.70
2022-08-07T11:32:15.230Z,69.60
2022-08-07T11:37:57.778Z,66.70
2022-08-07T11:43:29.747Z,68.80
2022-08-07T11:49:50.076Z,67.10
2022-08-07T11:54:56.451Z,67.10
2022-08-07T12:00:19.648Z,68.40
2022-08-07T12:05:49.348Z,67.30
2022-08-07T12:11:21.072Z,67.60
2022-08-07T12:16:36.165Z,67.00
2022-08-07T12:22:37.097Z,69.00
2022-08-07T12:27:28.063Z,69.90
2022-08-07T12:33:18.931Z,70.50
2022-08-07T12:38:42.513Z,68.30
2022-08-07T12:44:04.465Z,67.60
2022-08-07T12:49:44.790Z,70.50
2022-08-07T12:55:05.091Z,68.50
2022-08-07T13:00:20.832Z,67.60
2022-08-07T13:06:21.506Z,67.10
2022-08-07T13:12:03.107Z,67.20
2022-08-07T13:17:40.979Z,68.70
2022-08-07T13:23:00.071Z,67.30
2022-08-07T13:28:24.107Z,66.20
2022-08-07T13:34:30.292Z,73.20
2022-08-07T13:39:49.720Z,73.30
2022-08-07T13:45:11.817Z,73.20
2022-08-07T13:50:34.506Z,71.60
2022-08-07T13:55:37.171Z,70.30
2022-08-07T14:00:54.042Z,70.30
2022-08-07T14:05:57.421Z,66.60
2022-08-07T14:11:14.868Z,69.00
2022-08-07T14:16:27.110Z,69.40
2022-08-07T14:22:41.264Z,67.90
2022-08-07T14:28:09.314Z,68.90
2022-08-07T14:32:29.947Z,68.70
2022-08-07T14:37:39.001Z,69.20
2022-08-07T14:43:01.383Z,68.70
2022-08-07T14:48:08.119Z,71.20
2022-08-07T15:04:16.346Z,69.50
2022-08-07T15:09:57.712Z,71.10
2022-08-07T15:26:01.673Z,70.90
2022-08-07T15:31:07.998Z,67.00
2022-08-07T15:36:10.512Z,66.50
2022-08-07T15:42:42.329Z,68.30
2022-08-07T15:46:51.746Z,66.50
2022-08-07T15:57:00.814Z,67.80
2022-08-07T16:02:04.722Z,66.70
2022-08-07T16:08:33.270Z,64.60
2022-08-07T16:13:05.565Z,68.80
2022-08-07T16:18:43.572Z,66.90
2022-08-07T16:24:33.818Z,71.20
2022-08-07T16:30:10.861Z,71.60
2022-08-07T16:35:52.675Z,70.70
2022-08-07T16:41:02.226Z,69.20
2022-08-07T16:47:05.940Z,62.90
2022-08-07T16:52:52.533Z,68.60
2022-08-07T16:58:04.094Z,66.20
2022-08-07T17:03:17.467Z,65.30
2022-08-07T17:09:08.611Z,71.50
2022-08-07T17:14:18.357Z,66.30
2022-08-07T17:20:01.038Z,70.70
2022-08-07T17:25:02.771Z,72.70
2022-08-07T17:30:16.085Z,67.70
2022-08-07T17:35:50.661Z,68.70
2022-08-07T17:42:03.689Z,73.90
2022-08-07T17:47:38.497Z,68.20
2022-08-07T17:52:53.992Z,72.70
2022-08-07T17:58:05.509Z,73.30
2022-08-07T18:03:18.130Z,70.80
2022-08-07T18:09:01.073Z,73.50
2022-08-07T18:14:46.302Z,74.00
2022-08-07T18:21:08.043Z,74.70
2022-08-07T18:25:40.550Z,74.80
2022-08-07T18:30:53.370Z,75.50
2022-08-07T18:36:06.006Z,75.90
2022-08-07T18:41:44.724Z,73.70
2022-08-07T18:47:05.165Z,73.50
2022-08-07T18:52:37.768Z,77.40
2022-08-07T18:58:22.743Z,77.30
2022-08-07T19:03:35.572Z,76.60
2022-08-07T19:08:55.714Z,80.00
2022-08-07T19:14:25.029Z,79.20
2022-08-07T19:20:05.613Z,80.40
2022-08-07T19:26:23.078Z,80.50
2022-08-07T19:30:57.842Z,82.90
2022-08-07T19:36:11.193Z,82.50
2022-08-07T19:41:15.858Z,83.70
2022-08-07T19:46:26.777Z,83.40
2022-08-07T19:51:52.160Z,83.20
2022-08-07T19:57:52.192Z,84.50
2022-08-07T20:02:34.711Z,83.50
2022-08-07T20:07:45.984Z,84.50
2022-08-07T20:12:53.432Z,85.80
2022-08-07T20:18:03.512Z,85.60
2022-08-07T20:23:22.833Z,86.70
2022-08-07T20:28:33.689Z,87.00
2022-08-07T20:33:38.703Z,87.60
2022-08-07T20:38:59.858Z,89.10
2022-08-07T20:44:03.946Z,88.90
2022-08-07T20:49:57.853Z,88.40
2022-08-07T20:54:32.220Z,89.80
2022-08-07T21:00:05.675Z,90.10
2022-08-07T21:04:57.817Z,90.10
2022-08-07T21:10:02.282Z,89.50
2022-08-07T21:15:09.650Z,89.80
2022-08-07T21:20:29.474Z,90.20
2022-08-07T21:26:17.968Z,90.80
2022-08-07T21:31:50.163Z,91.30
2022-08-07T21:37:06.268Z,90.80
2022-08-07T21:47:50.121Z,91.60
2022-08-07T21:53:20.458Z,92.00
2022-08-07T21:58:38.465Z,92.30
2022-08-07T22:04:00.517Z,91.60
2022-08-07T22:09:13.686Z,92.60
2022-08-07T22:14:23.736Z,93.10
2022-08-07T22:20:00.500Z,93.00
2022-08-07T22:25:20.415Z,93.60
2022-08-07T22:30:36.032Z,92.70
2022-08-07T22:36:00.989Z,93.30
2022-08-07T22:41:07.453Z,93.00
2022-08-07T22:46:46.823Z,93.10
2022-08-07T22:52:36.902Z,94.10
2022-08-07T22:57:46.079Z,94.20
2022-08-07T23:03:23.966Z,94.80
2022-08-07T23:08:33.186Z,95.50
2022-08-07T23:14:15.145Z,94.10
2022-08-07T23:20:07.540Z,94.50
2022-08-07T23:25:09.274Z,96.20
2022-08-07T23:30:37.670Z,96.00
2022-08-07T23:35:42.121Z,95.50
2022-08-07T23:41:11.340Z,95.60
2022-08-07T23:46:43.320Z,96.20
2022-08-07T23:52:58.189Z,95.60
2022-08-07T23:57:14.066Z,95.10
